Centerbrook, Connecticut
Current Conditions -  °F | °C
As of 9:15 AM on Wednesday 28 Jan 2015 (Local Time) from KSNC Reporting Station
Few Clouds Few Clouds  
Wind Chill: -17°   Ceiling: Unl
Heat Index: -8°   Visibility: 10mi
Dew Point: -15°   Wind: 18mph
Humidity: 58%   Direction: 360°N
Pressure: 29.95"   Gusts: 25mph
Location:  41.35°N, 72.42°W
Report Text: KSNC 281415Z AUTO 36016G22KT 10SM FEW120 M08/M15 A2995 RMK AO2
Loading
Personal Weather Stations






























Interactive Weather Map New forecast layout! Learn more

10-Day Weather Forecast

Advertisements
Track Severe Weather on mobile